Varina, IA

13:31 CDT le 23 octobre 2014 (GMT -0500)
Fort Dodge Regional | Change Station
CLOSE
Current Station
Aéroport
Location: Fort Dodge,
Altitude: 1165 ft
Stations météo à proximité

Alt. 1165 ft 42.55 °N, 94.19 °W | Updated 16 minutes ago

Clear
Ciel dégagé
64 ° F
Paraît 64 ° F
N
6
Vent Variable Vent de NO

Aujourd'hui
Haut(e) -- | Bas -- ° F
--% Risque de précip.
Hier
Haut(e) -- | Bas -- ° F
Precip. -- pouce
7:41 AM 6:24 PM
Lune descendante, 0% visible
Pression 30.04 pouce
Visibilité 10.0 Miles terrestres
Nuages Ciel dégagé
Point de rosée 52 ° F
Humidité 64%
Précipitations 0.83 pouce
Profondeur de la couche neigeuse Non disponible.
UV 4 sur 12
Pollen .40 sur 12
Qualité de l'air Non disponible.
Flu Activity Sporadic
METAR KFOD 231815Z AUTO 31005KT 10SM CLR 18/11 A3004 RMK AO1

More Conditions Fewer Conditions

Pression 30.04 pouce
Visibilité 10.0 Miles terrestres
Nuages Ciel dégagé
Point de rosée 52 ° F
Humidité 64%
Précipitations 0.83 pouce
Profondeur de la couche neigeuse Non disponible.
UV 4 sur 12
Pollen .40 sur 12
Qualité de l'air Non disponible.
Flu Activity Sporadic
METAR KFOD 231815Z AUTO 31005KT 10SM CLR 18/11 A3004 RMK AO1

More Conditions Fewer Conditions

10-Day Weather Forecast

Almanac

Astronomie

Oct. 23, 2014 Lever Coucher
Temps réel 07:41 CDT 18:24 CDT
Crépuscule civil 07:13 CDT 18:53 CDT
Crépuscule nautique 06:40 CDT 19:26 CDT
Crépuscule astronomique 06:07 CDT 19:58 CDT
Lune 07:22 CDT 18:26 CDT
Durée de lumière visible 11h 40m
Longueur du jour
10h 42m
Tomorrow will be 2m 41s shorter.
Lune descendante, 0% of the Moon is Illuminated
Aujourd'hui
Lune descendante
Oct 23
Nouveau
Oct 30
Premier quartier
Nov 6
Pleine lune
Nov 14
Dernier quartier

Extrêmes aujourd'hui

State Highs State Lows

Community

WunderPhotos

Upload Photos

1,764,338 Photos téléchargées !

WunderBlogs® & News

Nearby

Épaisseur de neige

Station Depth Altitude
Pas de nouvelles chutes de neige

Activité sismique

Ville Distance Mag. Time & Date
No recent earthquake activity has been reported nearby.
Minimum magnitude displayed is 2.5.

Températures des eaux côtières

Lieu Température
Aucun rapport de station

Stations météo à proximité